sensor_id;sensor_type;location;lat;lon;timestamp;temperature;humidity
4056;DHT22;2043;52.184;8.690;2023-07-02T00:00:04;16.70;99.90
4056;DHT22;2043;52.184;8.690;2023-07-02T00:02:32;16.60;99.90
4056;DHT22;2043;52.184;8.690;2023-07-02T00:04:58;16.60;99.90
4056;DHT22;2043;52.184;8.690;2023-07-02T00:07:25;16.60;99.90
4056;DHT22;2043;52.184;8.690;2023-07-02T00:09:52;16.50;99.90
4056;DHT22;2043;52.184;8.690;2023-07-02T00:12:19;16.40;99.90
4056;DHT22;2043;52.184;8.690;2023-07-02T00:14:46;16.40;99.90
4056;DHT22;2043;52.184;8.690;2023-07-02T00:17:13;16.40;99.90
4056;DHT22;2043;52.184;8.690;2023-07-02T00:19:40;16.30;99.90
4056;DHT22;2043;52.184;8.690;2023-07-02T00:22:09;16.10;99.90
4056;DHT22;2043;52.184;8.690;2023-07-02T00:24:36;16.10;99.90
4056;DHT22;2043;52.184;8.690;2023-07-02T00:27:03;16.10;99.90
4056;DHT22;2043;52.184;8.690;2023-07-02T00:29:30;16.10;99.90
4056;DHT22;2043;52.184;8.690;2023-07-02T00:31:57;16.00;99.90
4056;DHT22;2043;52.184;8.690;2023-07-02T00:34:24;16.00;99.90
4056;DHT22;2043;52.184;8.690;2023-07-02T00:39:18;16.00;99.90
4056;DHT22;2043;52.184;8.690;2023-07-02T00:41:45;15.90;99.90
4056;DHT22;2043;52.184;8.690;2023-07-02T00:44:15;15.90;99.90
4056;DHT22;2043;52.184;8.690;2023-07-02T00:46:42;15.90;99.90
4056;DHT22;2043;52.184;8.690;2023-07-02T00:49:09;15.90;99.90
4056;DHT22;2043;52.184;8.690;2023-07-02T00:51:37;15.90;99.90
4056;DHT22;2043;52.184;8.690;2023-07-02T00:54:04;15.80;99.90
4056;DHT22;2043;52.184;8.690;2023-07-02T00:56:31;15.90;99.90
4056;DHT22;2043;52.184;8.690;2023-07-02T00:58:58;15.90;99.90
4056;DHT22;2043;52.184;8.690;2023-07-02T01:01:27;15.90;99.90
4056;DHT22;2043;52.184;8.690;2023-07-02T01:03:59;15.80;99.90
4056;DHT22;2043;52.184;8.690;2023-07-02T01:06:36;15.90;99.90
4056;DHT22;2043;52.184;8.690;2023-07-02T01:09:07;16.00;99.90
4056;DHT22;2043;52.184;8.690;2023-07-02T01:11:41;16.00;99.90
4056;DHT22;2043;52.184;8.690;2023-07-02T01:14:14;16.00;99.90
4056;DHT22;2043;52.184;8.690;2023-07-02T01:16:42;16.00;99.90
4056;DHT22;2043;52.184;8.690;2023-07-02T01:19:16;16.00;99.90
4056;DHT22;2043;52.184;8.690;2023-07-02T01:21:49;16.10;99.90
4056;DHT22;2043;52.184;8.690;2023-07-02T01:24:17;16.00;99.90
4056;DHT22;2043;52.184;8.690;2023-07-02T01:26:44;16.00;99.90
4056;DHT22;2043;52.184;8.690;2023-07-02T01:29:14;16.10;99.90
4056;DHT22;2043;52.184;8.690;2023-07-02T01:34:08;16.00;99.90
4056;DHT22;2043;52.184;8.690;2023-07-02T01:36:35;16.00;99.90
4056;DHT22;2043;52.184;8.690;2023-07-02T01:39:03;16.00;99.90
4056;DHT22;2043;52.184;8.690;2023-07-02T01:41:30;16.10;99.90
4056;DHT22;2043;52.184;8.690;2023-07-02T01:43:56;16.20;99.90
4056;DHT22;2043;52.184;8.690;2023-07-02T01:46:23;16.10;99.90
4056;DHT22;2043;52.184;8.690;2023-07-02T01:48:50;16.20;99.90
4056;DHT22;2043;52.184;8.690;2023-07-02T01:51:17;16.20;99.90
4056;DHT22;2043;52.184;8.690;2023-07-02T01:53:44;16.20;99.90
4056;DHT22;2043;52.184;8.690;2023-07-02T01:56:11;16.20;99.90
4056;DHT22;2043;52.184;8.690;2023-07-02T01:58:37;16.20;99.90
4056;DHT22;2043;52.184;8.690;2023-07-02T02:01:04;16.20;99.90
4056;DHT22;2043;52.184;8.690;2023-07-02T02:03:31;16.20;99.90
4056;DHT22;2043;52.184;8.690;2023-07-02T02:05:58;16.20;99.90
4056;DHT22;2043;52.184;8.690;2023-07-02T02:08:24;16.30;99.90
4056;DHT22;2043;52.184;8.690;2023-07-02T02:10:51;16.20;99.90
4056;DHT22;2043;52.184;8.690;2023-07-02T02:13:18;16.30;99.90
4056;DHT22;2043;52.184;8.690;2023-07-02T02:15:45;16.30;99.90
4056;DHT22;2043;52.184;8.690;2023-07-02T02:18:11;16.30;99.90
4056;DHT22;2043;52.184;8.690;2023-07-02T02:20:38;16.30;99.90
4056;DHT22;2043;52.184;8.690;2023-07-02T02:23:05;16.30;99.90
4056;DHT22;2043;52.184;8.690;2023-07-02T02:25:32;16.30;99.90
4056;DHT22;2043;52.184;8.690;2023-07-02T02:27:58;16.20;99.90
4056;DHT22;2043;52.184;8.690;2023-07-02T02:30:25;16.20;99.90
4056;DHT22;2043;52.184;8.690;2023-07-02T02:32:52;16.30;99.90
4056;DHT22;2043;52.184;8.690;2023-07-02T02:35:19;16.30;99.90
4056;DHT22;2043;52.184;8.690;2023-07-02T02:37:46;16.20;99.90
4056;DHT22;2043;52.184;8.690;2023-07-02T02:40:13;16.30;99.90
4056;DHT22;2043;52.184;8.690;2023-07-02T02:42:39;16.30;99.90
4056;DHT22;2043;52.184;8.690;2023-07-02T02:45:06;16.40;99.90
4056;DHT22;2043;52.184;8.690;2023-07-02T02:47:33;16.30;99.90
4056;DHT22;2043;52.184;8.690;2023-07-02T02:50:00;16.40;99.90
4056;DHT22;2043;52.184;8.690;2023-07-02T02:52:27;16.40;99.90
4056;DHT22;2043;52.184;8.690;2023-07-02T02:54:54;16.50;99.90
4056;DHT22;2043;52.184;8.690;2023-07-02T02:57:20;16.50;99.90
4056;DHT22;2043;52.184;8.690;2023-07-02T02:59:47;16.60;99.90
4056;DHT22;2043;52.184;8.690;2023-07-02T03:02:14;16.50;99.90
4056;DHT22;2043;52.184;8.690;2023-07-02T03:04:40;16.50;99.90
4056;DHT22;2043;52.184;8.690;2023-07-02T03:07:08;16.40;99.90
4056;DHT22;2043;52.184;8.690;2023-07-02T03:09:34;16.50;99.90
4056;DHT22;2043;52.184;8.690;2023-07-02T03:12:01;16.60;99.90
4056;DHT22;2043;52.184;8.690;2023-07-02T03:14:28;16.70;99.90
4056;DHT22;2043;52.184;8.690;2023-07-02T03:16:56;16.80;99.90
4056;DHT22;2043;52.184;8.690;2023-07-02T03:19:23;16.80;99.90
4056;DHT22;2043;52.184;8.690;2023-07-02T03:21:49;16.90;99.90
4056;DHT22;2043;52.184;8.690;2023-07-02T03:24:17;16.70;99.90
4056;DHT22;2043;52.184;8.690;2023-07-02T03:26:44;16.80;99.90
4056;DHT22;2043;52.184;8.690;2023-07-02T03:29:11;16.80;99.90
4056;DHT22;2043;52.184;8.690;2023-07-02T03:31:38;16.80;99.90
4056;DHT22;2043;52.184;8.690;2023-07-02T03:34:08;16.80;99.90
4056;DHT22;2043;52.184;8.690;2023-07-02T03:36:36;16.80;99.90
4056;DHT22;2043;52.184;8.690;2023-07-02T03:39:04;16.80;99.90
4056;DHT22;2043;52.184;8.690;2023-07-02T03:44:02;16.80;99.90
4056;DHT22;2043;52.184;8.690;2023-07-02T03:46:28;16.70;99.90
4056;DHT22;2043;52.184;8.690;2023-07-02T03:48:57;16.40;99.90
4056;DHT22;2043;52.184;8.690;2023-07-02T03:51:24;16.40;99.90
4056;DHT22;2043;52.184;8.690;2023-07-02T03:53:50;16.40;99.90
4056;DHT22;2043;52.184;8.690;2023-07-02T03:58:44;16.30;99.90
4056;DHT22;2043;52.184;8.690;2023-07-02T04:01:11;16.20;99.90
4056;DHT22;2043;52.184;8.690;2023-07-02T04:03:52;16.30;99.90
4056;DHT22;2043;52.184;8.690;2023-07-02T04:06:19;16.20;99.90
4056;DHT22;2043;52.184;8.690;2023-07-02T04:08:46;16.20;99.90
4056;DHT22;2043;52.184;8.690;2023-07-02T04:11:13;16.10;99.90
4056;DHT22;2043;52.184;8.690;2023-07-02T04:13:39;16.10;99.90
4056;DHT22;2043;52.184;8.690;2023-07-02T04:16:07;16.10;99.90
4056;DHT22;2043;52.184;8.690;2023-07-02T04:18:34;16.10;99.90
4056;DHT22;2043;52.184;8.690;2023-07-02T04:21:02;16.10;99.90
4056;DHT22;2043;52.184;8.690;2023-07-02T04:23:29;16.10;99.90
4056;DHT22;2043;52.184;8.690;2023-07-02T04:25:56;16.10;99.90
4056;DHT22;2043;52.184;8.690;2023-07-02T04:28:43;16.10;99.90
4056;DHT22;2043;52.184;8.690;2023-07-02T04:31:10;16.10;99.90
4056;DHT22;2043;52.184;8.690;2023-07-02T04:33:37;16.10;99.90
4056;DHT22;2043;52.184;8.690;2023-07-02T04:36:06;16.10;99.90
4056;DHT22;2043;52.184;8.690;2023-07-02T04:38:34;16.10;99.90
4056;DHT22;2043;52.184;8.690;2023-07-02T04:43:32;16.10;99.90
4056;DHT22;2043;52.184;8.690;2023-07-02T04:46:00;16.10;99.90
4056;DHT22;2043;52.184;8.690;2023-07-02T04:48:27;16.20;99.90
4056;DHT22;2043;52.184;8.690;2023-07-02T04:50:54;16.30;99.90
4056;DHT22;2043;52.184;8.690;2023-07-02T04:53:21;16.30;99.90
4056;DHT22;2043;52.184;8.690;2023-07-02T04:55:47;16.30;99.90
4056;DHT22;2043;52.184;8.690;2023-07-02T04:58:15;16.40;99.90
4056;DHT22;2043;52.184;8.690;2023-07-02T05:00:42;16.40;99.90
4056;DHT22;2043;52.184;8.690;2023-07-02T05:03:08;16.40;99.90
4056;DHT22;2043;52.184;8.690;2023-07-02T05:05:35;16.50;99.90
4056;DHT22;2043;52.184;8.690;2023-07-02T05:08:02;16.50;99.90
4056;DHT22;2043;52.184;8.690;2023-07-02T05:10:31;16.50;99.90
4056;DHT22;2043;52.184;8.690;2023-07-02T05:12:58;16.60;99.90
4056;DHT22;2043;52.184;8.690;2023-07-02T05:17:52;16.70;99.90
4056;DHT22;2043;52.184;8.690;2023-07-02T05:20:19;16.80;99.90
4056;DHT22;2043;52.184;8.690;2023-07-02T05:25:14;16.80;99.90
4056;DHT22;2043;52.184;8.690;2023-07-02T05:27:40;16.80;99.90
4056;DHT22;2043;52.184;8.690;2023-07-02T05:30:08;16.90;99.90
4056;DHT22;2043;52.184;8.690;2023-07-02T05:32:35;16.80;99.90
4056;DHT22;2043;52.184;8.690;2023-07-02T05:35:01;17.00;99.90
4056;DHT22;2043;52.184;8.690;2023-07-02T05:37:28;17.00;99.90
4056;DHT22;2043;52.184;8.690;2023-07-02T05:39:55;17.20;99.90
4056;DHT22;2043;52.184;8.690;2023-07-02T05:42:22;17.40;99.90
4056;DHT22;2043;52.184;8.690;2023-07-02T05:44:49;17.30;99.90
4056;DHT22;2043;52.184;8.690;2023-07-02T05:47:16;17.20;99.90
4056;DHT22;2043;52.184;8.690;2023-07-02T05:49:42;17.00;99.90
4056;DHT22;2043;52.184;8.690;2023-07-02T05:52:09;17.00;99.90
4056;DHT22;2043;52.184;8.690;2023-07-02T05:54:42;17.20;99.90
4056;DHT22;2043;52.184;8.690;2023-07-02T05:57:09;17.30;99.90
4056;DHT22;2043;52.184;8.690;2023-07-02T05:59:37;17.30;99.70
4056;DHT22;2043;52.184;8.690;2023-07-02T06:02:04;17.00;99.90
4056;DHT22;2043;52.184;8.690;2023-07-02T06:04:30;17.10;99.90
4056;DHT22;2043;52.184;8.690;2023-07-02T06:06:57;17.20;99.90
4056;DHT22;2043;52.184;8.690;2023-07-02T06:09:24;17.00;97.60
4056;DHT22;2043;52.184;8.690;2023-07-02T06:11:51;17.10;99.40
4056;DHT22;2043;52.184;8.690;2023-07-02T06:14:18;17.30;99.20
4056;DHT22;2043;52.184;8.690;2023-07-02T06:19:12;17.40;97.90
4056;DHT22;2043;52.184;8.690;2023-07-02T06:24:06;17.70;96.50
4056;DHT22;2043;52.184;8.690;2023-07-02T06:26:33;17.90;96.10
4056;DHT22;2043;52.184;8.690;2023-07-02T06:28:59;17.90;95.00
4056;DHT22;2043;52.184;8.690;2023-07-02T06:31:26;18.00;96.20
4056;DHT22;2043;52.184;8.690;2023-07-02T06:33:53;18.10;95.10
4056;DHT22;2043;52.184;8.690;2023-07-02T06:36:20;18.20;94.70
4056;DHT22;2043;52.184;8.690;2023-07-02T06:38:47;18.20;94.20
4056;DHT22;2043;52.184;8.690;2023-07-02T06:41:14;18.20;94.50
4056;DHT22;2043;52.184;8.690;2023-07-02T06:43:44;18.30;94.80
4056;DHT22;2043;52.184;8.690;2023-07-02T06:46:11;18.40;93.80
4056;DHT22;2043;52.184;8.690;2023-07-02T06:48:38;18.30;92.90
4056;DHT22;2043;52.184;8.690;2023-07-02T06:53:35;18.10;94.20
4056;DHT22;2043;52.184;8.690;2023-07-02T06:56:02;18.30;93.70
4056;DHT22;2043;52.184;8.690;2023-07-02T06:58:30;18.40;91.70
4056;DHT22;2043;52.184;8.690;2023-07-02T07:00:56;18.40;92.50
4056;DHT22;2043;52.184;8.690;2023-07-02T07:03:23;18.40;92.50
4056;DHT22;2043;52.184;8.690;2023-07-02T07:05:51;18.40;92.20
4056;DHT22;2043;52.184;8.690;2023-07-02T07:08:17;18.60;91.40
4056;DHT22;2043;52.184;8.690;2023-07-02T07:10:44;18.60;91.40
4056;DHT22;2043;52.184;8.690;2023-07-02T07:13:12;18.60;91.20
4056;DHT22;2043;52.184;8.690;2023-07-02T07:15:39;18.40;90.30
4056;DHT22;2043;52.184;8.690;2023-07-02T07:18:08;18.60;90.40
4056;DHT22;2043;52.184;8.690;2023-07-02T07:23:03;19.00;89.20
4056;DHT22;2043;52.184;8.690;2023-07-02T07:25:30;18.90;89.50
4056;DHT22;2043;52.184;8.690;2023-07-02T07:27:59;19.00;88.80
4056;DHT22;2043;52.184;8.690;2023-07-02T07:30:26;19.10;88.90
4056;DHT22;2043;52.184;8.690;2023-07-02T07:32:53;19.20;87.40
4056;DHT22;2043;52.184;8.690;2023-07-02T07:35:21;19.20;87.40
4056;DHT22;2043;52.184;8.690;2023-07-02T07:37:49;19.30;87.30
4056;DHT22;2043;52.184;8.690;2023-07-02T07:40:16;19.60;88.40
4056;DHT22;2043;52.184;8.690;2023-07-02T07:42:43;19.60;84.70
4056;DHT22;2043;52.184;8.690;2023-07-02T07:45:10;19.50;86.00
4056;DHT22;2043;52.184;8.690;2023-07-02T07:47:38;19.50;85.50
4056;DHT22;2043;52.184;8.690;2023-07-02T07:50:06;19.30;86.50
4056;DHT22;2043;52.184;8.690;2023-07-02T07:52:40;19.30;86.30
4056;DHT22;2043;52.184;8.690;2023-07-02T07:55:08;19.40;85.90
4056;DHT22;2043;52.184;8.690;2023-07-02T07:57:36;19.60;85.10
4056;DHT22;2043;52.184;8.690;2023-07-02T08:00:04;19.70;84.80
4056;DHT22;2043;52.184;8.690;2023-07-02T08:02:33;20.00;84.50
4056;DHT22;2043;52.184;8.690;2023-07-02T08:05:00;20.10;83.50
4056;DHT22;2043;52.184;8.690;2023-07-02T08:07:27;20.00;83.10
4056;DHT22;2043;52.184;8.690;2023-07-02T08:09:53;20.00;83.20
4056;DHT22;2043;52.184;8.690;2023-07-02T08:12:20;19.90;82.70
4056;DHT22;2043;52.184;8.690;2023-07-02T08:14:47;20.00;81.30
4056;DHT22;2043;52.184;8.690;2023-07-02T08:17:14;20.00;82.10
4056;DHT22;2043;52.184;8.690;2023-07-02T08:19:40;19.90;82.90
4056;DHT22;2043;52.184;8.690;2023-07-02T08:22:07;19.40;82.40
4056;DHT22;2043;52.184;8.690;2023-07-02T08:24:34;19.40;82.00
4056;DHT22;2043;52.184;8.690;2023-07-02T08:27:01;19.50;81.80
4056;DHT22;2043;52.184;8.690;2023-07-02T08:29:30;19.40;82.00
4056;DHT22;2043;52.184;8.690;2023-07-02T08:31:57;19.20;80.70
4056;DHT22;2043;52.184;8.690;2023-07-02T08:34:24;19.10;81.30
4056;DHT22;2043;52.184;8.690;2023-07-02T08:36:51;19.30;79.80
4056;DHT22;2043;52.184;8.690;2023-07-02T08:39:18;19.10;79.80
4056;DHT22;2043;52.184;8.690;2023-07-02T08:41:45;19.40;80.20
4056;DHT22;2043;52.184;8.690;2023-07-02T08:44:14;19.40;79.30
4056;DHT22;2043;52.184;8.690;2023-07-02T08:46:41;19.40;79.80
4056;DHT22;2043;52.184;8.690;2023-07-02T08:49:09;19.30;79.70
4056;DHT22;2043;52.184;8.690;2023-07-02T08:51:36;19.30;79.20
4056;DHT22;2043;52.184;8.690;2023-07-02T08:54:03;19.20;79.90
4056;DHT22;2043;52.184;8.690;2023-07-02T08:56:30;19.30;79.70
4056;DHT22;2043;52.184;8.690;2023-07-02T08:58:57;19.50;78.90
4056;DHT22;2043;52.184;8.690;2023-07-02T09:01:23;19.80;78.40
4056;DHT22;2043;52.184;8.690;2023-07-02T09:03:50;20.10;77.70
4056;DHT22;2043;52.184;8.690;2023-07-02T09:06:18;20.50;77.70
4056;DHT22;2043;52.184;8.690;2023-07-02T09:08:45;20.70;78.00
4056;DHT22;2043;52.184;8.690;2023-07-02T09:11:15;20.10;76.50
4056;DHT22;2043;52.184;8.690;2023-07-02T09:13:47;19.80;79.00
4056;DHT22;2043;52.184;8.690;2023-07-02T09:19:01;20.20;77.00
4056;DHT22;2043;52.184;8.690;2023-07-02T09:21:42;20.60;76.30
4056;DHT22;2043;52.184;8.690;2023-07-02T09:24:19;20.80;74.90
4056;DHT22;2043;52.184;8.690;2023-07-02T09:26:48;20.80;74.80
4056;DHT22;2043;52.184;8.690;2023-07-02T09:29:26;20.70;75.10
4056;DHT22;2043;52.184;8.690;2023-07-02T09:31:59;20.60;75.80
4056;DHT22;2043;52.184;8.690;2023-07-02T09:34:37;20.80;74.70
4056;DHT22;2043;52.184;8.690;2023-07-02T09:37:04;21.00;75.20
4056;DHT22;2043;52.184;8.690;2023-07-02T09:39:33;21.30;75.10
4056;DHT22;2043;52.184;8.690;2023-07-02T09:42:02;21.60;74.60
4056;DHT22;2043;52.184;8.690;2023-07-02T09:44:30;21.20;74.20
4056;DHT22;2043;52.184;8.690;2023-07-02T09:49:25;20.80;73.30
4056;DHT22;2043;52.184;8.690;2023-07-02T09:51:53;20.70;74.50
4056;DHT22;2043;52.184;8.690;2023-07-02T09:54:20;20.80;74.10
4056;DHT22;2043;52.184;8.690;2023-07-02T09:56:47;21.10;74.70
4056;DHT22;2043;52.184;8.690;2023-07-02T09:59:14;21.30;72.80
4056;DHT22;2043;52.184;8.690;2023-07-02T10:01:41;21.20;73.20
4056;DHT22;2043;52.184;8.690;2023-07-02T10:04:14;21.10;73.80
4056;DHT22;2043;52.184;8.690;2023-07-02T10:06:49;20.70;74.60
4056;DHT22;2043;52.184;8.690;2023-07-02T10:09:21;20.90;73.10
4056;DHT22;2043;52.184;8.690;2023-07-02T10:14:15;21.20;74.50
4056;DHT22;2043;52.184;8.690;2023-07-02T10:16:52;21.70;73.00
4056;DHT22;2043;52.184;8.690;2023-07-02T10:19:19;21.80;71.10
4056;DHT22;2043;52.184;8.690;2023-07-02T10:21:48;21.80;70.90
4056;DHT22;2043;52.184;8.690;2023-07-02T10:24:27;21.30;71.10
4056;DHT22;2043;52.184;8.690;2023-07-02T10:27:03;21.30;73.00
4056;DHT22;2043;52.184;8.690;2023-07-02T10:29:30;20.90;72.80
4056;DHT22;2043;52.184;8.690;2023-07-02T10:31:57;20.70;73.70
4056;DHT22;2043;52.184;8.690;2023-07-02T10:34:32;20.60;73.50
4056;DHT22;2043;52.184;8.690;2023-07-02T10:37:00;20.60;74.70
4056;DHT22;2043;52.184;8.690;2023-07-02T10:39:28;20.80;73.80
4056;DHT22;2043;52.184;8.690;2023-07-02T10:42:06;21.10;73.80
4056;DHT22;2043;52.184;8.690;2023-07-02T10:44:35;21.10;73.30
4056;DHT22;2043;52.184;8.690;2023-07-02T10:47:12;20.50;73.90
4056;DHT22;2043;52.184;8.690;2023-07-02T10:49:39;20.30;74.00
4056;DHT22;2043;52.184;8.690;2023-07-02T10:52:06;20.40;74.60
4056;DHT22;2043;52.184;8.690;2023-07-02T10:54:43;20.50;74.00
4056;DHT22;2043;52.184;8.690;2023-07-02T10:57:13;20.80;74.90
4056;DHT22;2043;52.184;8.690;2023-07-02T10:59:40;21.30;74.30
4056;DHT22;2043;52.184;8.690;2023-07-02T11:02:08;21.00;72.10
4056;DHT22;2043;52.184;8.690;2023-07-02T11:04:37;20.90;73.80
4056;DHT22;2043;52.184;8.690;2023-07-02T11:07:05;21.10;72.90
4056;DHT22;2043;52.184;8.690;2023-07-02T11:09:32;21.00;73.70
4056;DHT22;2043;52.184;8.690;2023-07-02T11:12:00;21.20;73.10
4056;DHT22;2043;52.184;8.690;2023-07-02T11:14:34;21.00;73.40
4056;DHT22;2043;52.184;8.690;2023-07-02T11:17:06;21.00;74.10
4056;DHT22;2043;52.184;8.690;2023-07-02T11:19:34;21.00;74.30
4056;DHT22;2043;52.184;8.690;2023-07-02T11:22:01;21.00;74.80
4056;DHT22;2043;52.184;8.690;2023-07-02T11:24:31;21.10;73.30
4056;DHT22;2043;52.184;8.690;2023-07-02T11:27:02;21.30;72.10
4056;DHT22;2043;52.184;8.690;2023-07-02T11:29:30;21.30;72.00
4056;DHT22;2043;52.184;8.690;2023-07-02T11:32:08;21.60;72.70
4056;DHT22;2043;52.184;8.690;2023-07-02T11:34:37;21.80;73.20
4056;DHT22;2043;52.184;8.690;2023-07-02T11:37:04;21.90;72.70
4056;DHT22;2043;52.184;8.690;2023-07-02T11:39:32;21.50;73.00
4056;DHT22;2043;52.184;8.690;2023-07-02T11:41:59;21.20;73.90
4056;DHT22;2043;52.184;8.690;2023-07-02T11:44:25;21.50;74.10
4056;DHT22;2043;52.184;8.690;2023-07-02T11:46:52;21.80;73.00
4056;DHT22;2043;52.184;8.690;2023-07-02T11:49:19;22.20;73.10
4056;DHT22;2043;52.184;8.690;2023-07-02T11:51:46;22.10;71.50
4056;DHT22;2043;52.184;8.690;2023-07-02T11:54:16;22.10;72.60
4056;DHT22;2043;52.184;8.690;2023-07-02T11:56:45;22.10;71.70
4056;DHT22;2043;52.184;8.690;2023-07-02T11:59:12;22.20;72.30
4056;DHT22;2043;52.184;8.690;2023-07-02T12:01:38;21.90;70.40
4056;DHT22;2043;52.184;8.690;2023-07-02T12:04:05;21.70;71.40
4056;DHT22;2043;52.184;8.690;2023-07-02T12:09:01;21.40;72.90
4056;DHT22;2043;52.184;8.690;2023-07-02T12:11:38;21.30;72.70
4056;DHT22;2043;52.184;8.690;2023-07-02T12:14:05;21.30;73.20
4056;DHT22;2043;52.184;8.690;2023-07-02T12:16:32;21.60;72.70
4056;DHT22;2043;52.184;8.690;2023-07-02T12:21:26;22.10;72.60
4056;DHT22;2043;52.184;8.690;2023-07-02T12:23:53;21.90;71.40
4056;DHT22;2043;52.184;8.690;2023-07-02T12:26:20;21.70;72.00
4056;DHT22;2043;52.184;8.690;2023-07-02T12:28:46;21.30;72.50
4056;DHT22;2043;52.184;8.690;2023-07-02T12:31:13;21.30;73.00
4056;DHT22;2043;52.184;8.690;2023-07-02T12:33:40;21.20;72.60
4056;DHT22;2043;52.184;8.690;2023-07-02T12:36:07;21.30;72.80
4056;DHT22;2043;52.184;8.690;2023-07-02T12:38:34;21.10;73.10
4056;DHT22;2043;52.184;8.690;2023-07-02T12:41:00;21.20;73.70
4056;DHT22;2043;52.184;8.690;2023-07-02T12:43:27;21.30;74.10
4056;DHT22;2043;52.184;8.690;2023-07-02T12:45:54;21.50;73.20
4056;DHT22;2043;52.184;8.690;2023-07-02T12:48:21;21.60;72.80
4056;DHT22;2043;52.184;8.690;2023-07-02T12:50:57;22.00;72.40
4056;DHT22;2043;52.184;8.690;2023-07-02T12:53:25;22.20;72.00
4056;DHT22;2043;52.184;8.690;2023-07-02T12:55:53;22.30;70.90
4056;DHT22;2043;52.184;8.690;2023-07-02T12:58:21;21.80;72.30
4056;DHT22;2043;52.184;8.690;2023-07-02T13:00:48;21.70;71.70
4056;DHT22;2043;52.184;8.690;2023-07-02T13:03:17;21.70;72.40
4056;DHT22;2043;52.184;8.690;2023-07-02T13:05:47;22.00;73.50
4056;DHT22;2043;52.184;8.690;2023-07-02T13:08:14;22.50;72.60
4056;DHT22;2043;52.184;8.690;2023-07-02T13:10:41;22.80;71.00
4056;DHT22;2043;52.184;8.690;2023-07-02T13:13:08;22.50;69.50
4056;DHT22;2043;52.184;8.690;2023-07-02T13:15:48;21.90;71.90
4056;DHT22;2043;52.184;8.690;2023-07-02T13:18:15;21.90;71.90
4056;DHT22;2043;52.184;8.690;2023-07-02T13:20:42;22.00;71.20
4056;DHT22;2043;52.184;8.690;2023-07-02T13:23:09;22.20;70.30
4056;DHT22;2043;52.184;8.690;2023-07-02T13:25:36;22.40;70.60
4056;DHT22;2043;52.184;8.690;2023-07-02T13:28:03;22.50;69.70
4056;DHT22;2043;52.184;8.690;2023-07-02T13:30:30;22.40;70.10
4056;DHT22;2043;52.184;8.690;2023-07-02T13:32:59;22.50;69.50
4056;DHT22;2043;52.184;8.690;2023-07-02T13:35:26;22.20;69.00
4056;DHT22;2043;52.184;8.690;2023-07-02T13:37:52;22.50;69.00
4056;DHT22;2043;52.184;8.690;2023-07-02T13:40:19;22.50;67.70
4056;DHT22;2043;52.184;8.690;2023-07-02T13:42:46;22.40;68.70
4056;DHT22;2043;52.184;8.690;2023-07-02T13:45:13;22.40;69.40
4056;DHT22;2043;52.184;8.690;2023-07-02T13:47:39;22.70;67.40
4056;DHT22;2043;52.184;8.690;2023-07-02T13:50:06;22.60;67.70
4056;DHT22;2043;52.184;8.690;2023-07-02T13:52:33;22.70;69.40
4056;DHT22;2043;52.184;8.690;2023-07-02T13:55:00;23.00;68.80
4056;DHT22;2043;52.184;8.690;2023-07-02T13:57:27;23.10;67.30
4056;DHT22;2043;52.184;8.690;2023-07-02T13:59:54;23.20;67.30
4056;DHT22;2043;52.184;8.690;2023-07-02T14:02:21;23.20;67.60
4056;DHT22;2043;52.184;8.690;2023-07-02T14:04:48;23.30;67.00
4056;DHT22;2043;52.184;8.690;2023-07-02T14:07:15;23.50;66.90
4056;DHT22;2043;52.184;8.690;2023-07-02T14:12:09;23.00;67.10
4056;DHT22;2043;52.184;8.690;2023-07-02T14:14:36;23.00;67.20
4056;DHT22;2043;52.184;8.690;2023-07-02T14:17:03;23.00;67.60
4056;DHT22;2043;52.184;8.690;2023-07-02T14:19:29;22.40;66.50
4056;DHT22;2043;52.184;8.690;2023-07-02T14:21:56;22.50;67.10
4056;DHT22;2043;52.184;8.690;2023-07-02T14:24:23;22.70;67.00
4056;DHT22;2043;52.184;8.690;2023-07-02T14:26:50;22.90;66.90
4056;DHT22;2043;52.184;8.690;2023-07-02T14:29:16;23.30;67.00
4056;DHT22;2043;52.184;8.690;2023-07-02T14:31:43;23.40;66.20
4056;DHT22;2043;52.184;8.690;2023-07-02T14:34:10;23.20;66.60
4056;DHT22;2043;52.184;8.690;2023-07-02T14:36:37;23.40;67.40
4056;DHT22;2043;52.184;8.690;2023-07-02T14:39:04;23.20;66.00
4056;DHT22;2043;52.184;8.690;2023-07-02T14:41:30;22.90;67.00
4056;DHT22;2043;52.184;8.690;2023-07-02T14:44:03;22.80;67.00
4056;DHT22;2043;52.184;8.690;2023-07-02T14:46:30;22.90;67.80
4056;DHT22;2043;52.184;8.690;2023-07-02T14:48:57;22.70;67.30
4056;DHT22;2043;52.184;8.690;2023-07-02T14:51:23;22.30;67.70
4056;DHT22;2043;52.184;8.690;2023-07-02T14:53:50;22.00;69.00
4056;DHT22;2043;52.184;8.690;2023-07-02T14:56:17;22.30;68.60
4056;DHT22;2043;52.184;8.690;2023-07-02T14:58:45;22.50;68.70
4056;DHT22;2043;52.184;8.690;2023-07-02T15:01:11;22.70;68.50
4056;DHT22;2043;52.184;8.690;2023-07-02T15:03:38;22.70;68.70
4056;DHT22;2043;52.184;8.690;2023-07-02T15:06:11;22.80;68.30
4056;DHT22;2043;52.184;8.690;2023-07-02T15:08:39;23.00;69.20
4056;DHT22;2043;52.184;8.690;2023-07-02T15:11:07;22.90;68.40
4056;DHT22;2043;52.184;8.690;2023-07-02T15:13:34;22.30;68.60
4056;DHT22;2043;52.184;8.690;2023-07-02T15:16:01;22.10;69.20
4056;DHT22;2043;52.184;8.690;2023-07-02T15:18:27;22.10;69.70
4056;DHT22;2043;52.184;8.690;2023-07-02T15:20:55;22.30;70.70
4056;DHT22;2043;52.184;8.690;2023-07-02T15:23:23;22.70;69.20
4056;DHT22;2043;52.184;8.690;2023-07-02T15:25:56;22.90;68.70
4056;DHT22;2043;52.184;8.690;2023-07-02T15:28:24;22.70;68.50
4056;DHT22;2043;52.184;8.690;2023-07-02T15:30:55;22.40;67.50
4056;DHT22;2043;52.184;8.690;2023-07-02T15:33:23;22.30;69.00
4056;DHT22;2043;52.184;8.690;2023-07-02T15:35:50;22.40;68.60
4056;DHT22;2043;52.184;8.690;2023-07-02T15:38:18;22.50;68.10
4056;DHT22;2043;52.184;8.690;2023-07-02T15:40:46;22.40;67.90
4056;DHT22;2043;52.184;8.690;2023-07-02T15:43:13;22.30;68.50
4056;DHT22;2043;52.184;8.690;2023-07-02T15:45:40;22.40;68.70
4056;DHT22;2043;52.184;8.690;2023-07-02T15:48:06;22.70;69.20
4056;DHT22;2043;52.184;8.690;2023-07-02T15:50:33;22.90;68.70
4056;DHT22;2043;52.184;8.690;2023-07-02T15:53:00;22.90;68.10
4056;DHT22;2043;52.184;8.690;2023-07-02T15:55:30;22.50;68.00
4056;DHT22;2043;52.184;8.690;2023-07-02T15:58:00;22.60;68.20
4056;DHT22;2043;52.184;8.690;2023-07-02T16:00:26;22.40;68.20
4056;DHT22;2043;52.184;8.690;2023-07-02T16:02:54;22.50;68.10
4056;DHT22;2043;52.184;8.690;2023-07-02T16:05:23;22.50;70.20
4056;DHT22;2043;52.184;8.690;2023-07-02T16:07:50;22.60;68.70
4056;DHT22;2043;52.184;8.690;2023-07-02T16:10:17;22.50;68.70
4056;DHT22;2043;52.184;8.690;2023-07-02T16:12:44;22.40;68.80
4056;DHT22;2043;52.184;8.690;2023-07-02T16:15:11;22.30;69.20
4056;DHT22;2043;52.184;8.690;2023-07-02T16:17:37;22.30;68.70
4056;DHT22;2043;52.184;8.690;2023-07-02T16:20:05;22.50;69.70
4056;DHT22;2043;52.184;8.690;2023-07-02T16:22:32;22.50;67.80
4056;DHT22;2043;52.184;8.690;2023-07-02T16:24:58;22.30;68.60
4056;DHT22;2043;52.184;8.690;2023-07-02T16:27:25;22.20;68.60
4056;DHT22;2043;52.184;8.690;2023-07-02T16:29:52;22.10;69.30
4056;DHT22;2043;52.184;8.690;2023-07-02T16:32:19;22.20;68.60
4056;DHT22;2043;52.184;8.690;2023-07-02T16:34:50;22.30;67.80
4056;DHT22;2043;52.184;8.690;2023-07-02T16:37:16;22.30;68.10
4056;DHT22;2043;52.184;8.690;2023-07-02T16:39:43;22.20;68.10
4056;DHT22;2043;52.184;8.690;2023-07-02T16:42:10;22.10;67.10
4056;DHT22;2043;52.184;8.690;2023-07-02T16:44:39;21.90;67.80
4056;DHT22;2043;52.184;8.690;2023-07-02T16:47:06;22.00;67.30